createdAt,value
2018-07-28T00:00:57.407Z,20.91
2018-07-28T00:01:57.458Z,20.87
2018-07-28T00:02:57.528Z,20.80
2018-07-28T00:03:57.583Z,20.86
2018-07-28T00:04:57.611Z,20.87
2018-07-28T00:05:57.665Z,20.81
2018-07-28T00:06:57.713Z,20.76
2018-07-28T00:07:57.789Z,20.79
2018-07-28T00:08:57.819Z,20.76
2018-07-28T00:09:57.873Z,20.84
2018-07-28T00:10:57.920Z,20.77
2018-07-28T00:11:57.971Z,20.80
2018-07-28T00:12:58.051Z,20.81
2018-07-28T00:13:58.074Z,20.79
2018-07-28T00:14:58.125Z,20.79
2018-07-28T00:15:58.176Z,20.90
2018-07-28T00:16:58.228Z,20.83
2018-07-28T00:17:58.317Z,20.86
2018-07-28T00:18:58.336Z,20.83
2018-07-28T00:19:58.382Z,20.79
2018-07-28T00:20:58.436Z,20.89
2018-07-28T00:21:58.486Z,20.80
2018-07-28T00:22:58.579Z,20.86
2018-07-28T00:23:58.590Z,20.65
2018-07-28T00:24:58.643Z,20.79
2018-07-28T00:25:58.692Z,20.76
2018-07-28T00:26:58.744Z,20.64
2018-07-28T00:27:58.826Z,20.68
2018-07-28T00:28:58.846Z,20.65
2018-07-28T00:29:58.898Z,20.68
2018-07-28T00:30:58.951Z,20.77
2018-07-28T00:31:59.003Z,20.81
2018-07-28T00:32:59.079Z,20.79
2018-07-28T00:33:59.106Z,20.66
2018-07-28T00:34:59.156Z,20.68
2018-07-28T00:35:59.206Z,20.68
2018-07-28T00:36:59.292Z,20.65
2018-07-28T00:37:59.311Z,20.65
2018-07-28T00:39:00.110Z,20.65
2018-07-28T00:39:59.415Z,20.64
2018-07-28T00:40:59.464Z,20.64
2018-07-28T00:41:59.541Z,20.58
2018-07-28T00:42:59.569Z,20.62
2018-07-28T00:43:59.619Z,20.62
2018-07-28T00:44:59.697Z,20.62
2018-07-28T00:45:59.720Z,20.62
2018-07-28T00:46:59.773Z,20.62
2018-07-28T00:47:59.825Z,20.62
2018-07-28T00:48:59.883Z,20.61
2018-07-28T00:49:59.950Z,20.69
2018-07-28T00:50:59.981Z,20.68
2018-07-28T00:52:00.030Z,20.69
2018-07-28T00:53:00.086Z,20.71
2018-07-28T00:54:00.134Z,20.69
2018-07-28T00:55:00.208Z,20.68
2018-07-28T00:56:00.238Z,20.65
2018-07-28T00:57:00.286Z,20.62
2018-07-28T00:58:00.363Z,20.62
2018-07-28T00:59:00.388Z,20.62
2018-07-28T01:00:00.444Z,20.66
2018-07-28T01:01:00.492Z,20.68
2018-07-28T01:02:00.553Z,20.58
2018-07-28T01:03:00.620Z,20.66
2018-07-28T01:04:00.645Z,20.65
2018-07-28T01:05:00.721Z,20.66
2018-07-28T01:06:00.749Z,20.65
2018-07-28T01:07:00.800Z,20.62
2018-07-28T01:08:00.876Z,20.65
2018-07-28T01:09:00.905Z,20.59
2018-07-28T01:10:00.963Z,20.54
2018-07-28T01:11:01.006Z,20.59
2018-07-28T01:12:01.057Z,20.59
2018-07-28T01:13:01.132Z,20.51
2018-07-28T01:14:01.162Z,20.50
2018-07-28T01:15:01.214Z,20.46
2018-07-28T01:16:01.265Z,20.47
2018-07-28T01:17:01.370Z,20.39
2018-07-28T01:18:01.408Z,20.41
2018-07-28T01:19:01.416Z,20.43
2018-07-28T01:20:01.467Z,20.38
2018-07-28T01:21:01.523Z,20.41
2018-07-28T01:22:01.569Z,20.42
2018-07-28T01:23:01.655Z,20.46
2018-07-28T01:24:01.677Z,20.53
2018-07-28T01:25:01.730Z,20.49
2018-07-28T01:26:01.779Z,20.42
2018-07-28T01:27:01.830Z,20.34
2018-07-28T01:28:01.901Z,20.33
2018-07-28T01:29:01.933Z,20.38
2018-07-28T01:30:01.984Z,20.24
2018-07-28T01:31:02.057Z,20.24
2018-07-28T01:32:02.092Z,20.16
2018-07-28T01:33:02.141Z,20.13
2018-07-28T01:34:02.211Z,20.05
2018-07-28T01:35:02.236Z,20.03
2018-07-28T01:36:02.321Z,20.03
2018-07-28T01:37:02.340Z,20.02
2018-07-28T01:38:02.392Z,20.06
2018-07-28T01:39:02.442Z,20.06
2018-07-28T01:40:02.493Z,20.02
2018-07-28T01:41:02.574Z,20.10
2018-07-28T01:42:02.596Z,20.12
2018-07-28T01:43:02.648Z,20.09
2018-07-28T01:44:02.721Z,20.27
2018-07-28T01:45:02.753Z,20.20
2018-07-28T01:46:02.802Z,20.24
2018-07-28T01:47:02.854Z,20.24
2018-07-28T01:48:02.903Z,20.33
2018-07-28T01:49:02.976Z,20.33
2018-07-28T01:50:03.005Z,20.30
2018-07-28T01:51:03.065Z,20.34
2018-07-28T01:52:03.134Z,20.31
2018-07-28T01:53:03.165Z,20.33
2018-07-28T01:54:03.223Z,20.31
2018-07-28T01:55:03.261Z,20.31
2018-07-28T01:56:03.313Z,20.38
2018-07-28T01:57:03.386Z,20.42
2018-07-28T01:58:03.414Z,20.49
2018-07-28T01:59:03.500Z,20.46
2018-07-28T02:00:03.516Z,20.42
2018-07-28T02:01:03.569Z,20.46
2018-07-28T02:02:03.644Z,20.47
2018-07-28T02:03:03.670Z,20.43
2018-07-28T02:04:03.750Z,20.42
2018-07-28T02:05:03.782Z,20.46
2018-07-28T02:06:03.825Z,20.47
2018-07-28T02:07:03.896Z,20.42
2018-07-28T02:08:03.925Z,20.39
2018-07-28T02:09:03.982Z,20.35
2018-07-28T02:10:04.054Z,20.39
2018-07-28T02:11:04.080Z,20.38
2018-07-28T02:12:04.131Z,20.38
2018-07-28T02:13:04.183Z,20.39
2018-07-28T02:14:04.235Z,20.35
2018-07-28T02:15:04.309Z,20.34
2018-07-28T02:16:04.336Z,20.31
2018-07-28T02:17:04.388Z,20.34
2018-07-28T02:18:04.437Z,20.31
2018-07-28T02:19:04.487Z,20.33
2018-07-28T02:20:04.566Z,20.27
2018-07-28T02:21:04.591Z,20.27
2018-07-28T02:22:04.642Z,20.24
2018-07-28T02:23:04.694Z,20.23
2018-07-28T02:24:04.744Z,20.25
2018-07-28T02:25:04.821Z,20.20
2018-07-28T02:26:04.847Z,20.21
2018-07-28T02:27:04.897Z,20.27
2018-07-28T02:28:04.949Z,20.28
2018-07-28T02:29:05.000Z,20.35
2018-07-28T02:30:05.085Z,20.47
2018-07-28T02:31:05.125Z,20.51
2018-07-28T02:32:05.154Z,20.51
2018-07-28T02:33:05.205Z,20.58
2018-07-28T02:34:05.260Z,20.59
2018-07-28T02:35:05.306Z,20.56
2018-07-28T02:36:05.386Z,20.54
2018-07-28T02:37:05.412Z,20.47
2018-07-28T02:38:05.459Z,20.43
2018-07-28T02:39:05.512Z,20.51
2018-07-28T02:40:05.561Z,20.51
2018-07-28T02:41:05.641Z,20.47
2018-07-28T02:42:05.664Z,20.49
2018-07-28T02:43:05.719Z,20.49
2018-07-28T02:44:05.768Z,20.47
2018-07-28T02:45:05.818Z,20.47
2018-07-28T02:46:05.891Z,20.58
2018-07-28T02:47:05.920Z,20.64
2018-07-28T02:48:05.972Z,20.65
2018-07-28T02:49:06.022Z,20.61
2018-07-28T02:50:06.082Z,20.64
2018-07-28T02:51:06.150Z,20.59
2018-07-28T02:52:06.176Z,20.56
2018-07-28T02:53:06.228Z,20.64
2018-07-28T02:54:06.278Z,20.59
2018-07-28T02:55:06.328Z,20.50
2018-07-28T02:56:06.402Z,20.50
2018-07-28T02:57:06.440Z,20.50
2018-07-28T02:58:06.481Z,20.59
2018-07-28T02:59:06.535Z,20.64
2018-07-28T03:00:06.661Z,20.64
2018-07-28T03:01:06.660Z,20.64
2018-07-28T03:02:06.687Z,20.65
2018-07-28T03:03:06.740Z,20.68
2018-07-28T03:04:06.792Z,20.66
2018-07-28T03:05:06.847Z,20.69
2018-07-28T03:06:06.931Z,20.68
2018-07-28T03:07:06.941Z,20.69
2018-07-28T03:08:06.993Z,20.69
2018-07-28T03:09:07.045Z,20.81
2018-07-28T03:10:07.100Z,20.81
2018-07-28T03:11:07.178Z,20.69
2018-07-28T03:12:07.199Z,20.66
2018-07-28T03:13:07.255Z,20.62
2018-07-28T03:14:07.302Z,20.58
2018-07-28T03:15:07.351Z,20.64
2018-07-28T03:16:07.427Z,20.68
2018-07-28T03:17:07.457Z,20.80
2018-07-28T03:18:07.538Z,20.80
2018-07-28T03:19:07.556Z,20.77
2018-07-28T03:20:07.608Z,20.68
2018-07-28T03:21:07.658Z,20.68
2018-07-28T03:22:07.738Z,20.68
2018-07-28T03:23:07.785Z,20.69
2018-07-28T03:24:08.360Z,20.69
2018-07-28T03:25:07.862Z,20.61
2018-07-28T03:26:07.913Z,20.54
2018-07-28T03:27:07.964Z,20.49
2018-07-28T03:28:08.047Z,20.47
2018-07-28T03:29:08.068Z,20.38
2018-07-28T03:30:08.119Z,20.33
2018-07-28T03:31:08.168Z,20.33
2018-07-28T03:32:08.222Z,20.31
2018-07-28T03:33:08.305Z,20.33
2018-07-28T03:34:08.322Z,20.28
2018-07-28T03:35:08.372Z,20.27
2018-07-28T03:36:08.423Z,20.24
2018-07-28T03:37:08.474Z,20.23
2018-07-28T03:38:08.570Z,20.23
2018-07-28T03:39:08.579Z,20.23
2018-07-28T03:40:08.630Z,20.28
2018-07-28T03:41:08.678Z,20.23
2018-07-28T03:42:08.730Z,20.18
2018-07-28T03:43:08.805Z,20.13
2018-07-28T03:44:08.855Z,20.10
2018-07-28T03:45:08.886Z,20.08
2018-07-28T03:46:08.935Z,20.08
2018-07-28T03:47:08.984Z,20.09
2018-07-28T03:48:09.037Z,20.08
2018-07-28T03:49:09.156Z,19.98
2018-07-28T03:50:09.148Z,20.09
2018-07-28T03:51:09.190Z,20.03
2018-07-28T03:52:09.241Z,19.98
2018-07-28T03:53:09.293Z,19.90
2018-07-28T03:54:09.373Z,19.88
2018-07-28T03:55:09.395Z,19.83
2018-07-28T03:56:09.445Z,19.79
2018-07-28T03:57:09.497Z,19.80
2018-07-28T03:58:09.546Z,19.83
2018-07-28T03:59:09.629Z,19.70
2018-07-28T04:00:09.654Z,19.75
2018-07-28T04:01:09.711Z,19.68
2018-07-28T04:02:09.755Z,19.75
2018-07-28T04:03:09.801Z,19.68
2018-07-28T04:04:09.933Z,19.70
2018-07-28T04:05:09.906Z,19.76
2018-07-28T04:06:09.955Z,19.84
2018-07-28T04:07:10.012Z,19.78
2018-07-28T04:08:10.056Z,19.72
2018-07-28T04:09:10.145Z,19.72
2018-07-28T04:10:10.160Z,19.72
2018-07-28T04:11:10.213Z,19.70
2018-07-28T04:12:10.262Z,19.69
2018-07-28T04:13:10.312Z,19.75
2018-07-28T04:14:10.386Z,19.61
2018-07-28T04:15:10.412Z,19.63
2018-07-28T04:16:10.492Z,19.69
2018-07-28T04:17:10.517Z,19.75
2018-07-28T04:18:10.565Z,19.75
2018-07-28T04:19:10.616Z,19.70
2018-07-28T04:20:10.690Z,19.83
2018-07-28T04:21:10.743Z,19.83
2018-07-28T04:22:10.769Z,19.90
2018-07-28T04:23:10.821Z,19.86
2018-07-28T04:24:10.871Z,19.88
2018-07-28T04:25:10.947Z,19.91
2018-07-28T04:26:10.997Z,19.95
2018-07-28T04:27:11.027Z,19.91
2018-07-28T04:28:11.073Z,19.93
2018-07-28T04:29:11.133Z,20.02
2018-07-28T04:30:11.204Z,19.97
2018-07-28T04:31:11.226Z,19.94
2018-07-28T04:32:11.278Z,19.98
2018-07-28T04:33:11.329Z,19.94
2018-07-28T04:34:11.389Z,20.03
2018-07-28T04:35:11.458Z,19.93
2018-07-28T04:36:11.486Z,20.00
2018-07-28T04:37:11.672Z,19.91
2018-07-28T04:38:11.584Z,19.98
2018-07-28T04:39:11.640Z,19.97
2018-07-28T04:40:11.686Z,20.00
2018-07-28T04:41:11.760Z,20.00
2018-07-28T04:42:11.815Z,19.97
2018-07-28T04:43:11.842Z,20.03
2018-07-28T04:44:11.892Z,20.06
2018-07-28T04:45:11.946Z,20.09
2018-07-28T04:46:12.022Z,20.09
2018-07-28T04:47:12.043Z,20.06
2018-07-28T04:48:12.099Z,20.10
2018-07-28T04:49:12.144Z,20.12
2018-07-28T04:50:12.196Z,20.15
2018-07-28T04:51:12.284Z,20.13
2018-07-28T04:52:12.301Z,20.20
2018-07-28T04:53:12.348Z,20.25
2018-07-28T04:54:12.399Z,20.23
2018-07-28T04:55:12.448Z,20.30
2018-07-28T04:56:12.535Z,20.31
2018-07-28T04:57:12.551Z,20.38
2018-07-28T04:58:12.605Z,20.34
2018-07-28T04:59:12.659Z,20.46
2018-07-28T05:00:12.705Z,20.53
2018-07-28T05:01:12.781Z,20.54
2018-07-28T05:02:12.810Z,20.61
2018-07-28T05:03:12.884Z,20.62
2018-07-28T05:04:12.911Z,20.69
2018-07-28T05:05:12.970Z,20.65
2018-07-28T05:06:13.012Z,20.68
2018-07-28T05:07:13.126Z,20.65
2018-07-28T05:08:13.140Z,20.79
2018-07-28T05:09:13.165Z,20.77
2018-07-28T05:10:13.219Z,20.79
2018-07-28T05:11:13.272Z,20.87
2018-07-28T05:12:13.342Z,20.93
2018-07-28T05:13:13.393Z,20.91
2018-07-28T05:14:13.425Z,20.93
2018-07-28T05:15:13.479Z,20.91
2018-07-28T05:16:13.524Z,21.02
2018-07-28T05:17:13.575Z,20.90
2018-07-28T05:18:13.650Z,21.05
2018-07-28T05:19:13.677Z,21.05
2018-07-28T05:20:13.729Z,21.11
2018-07-28T05:21:13.780Z,21.08
2018-07-28T05:22:13.848Z,21.05
2018-07-28T05:23:13.907Z,21.14
2018-07-28T05:24:13.960Z,21.20
2018-07-28T05:25:13.990Z,21.24
2018-07-28T05:26:14.041Z,21.30
2018-07-28T05:27:14.088Z,21.36
2018-07-28T05:28:14.164Z,21.34
2018-07-28T05:29:14.193Z,21.39
2018-07-28T05:30:14.244Z,21.42
2018-07-28T05:31:14.298Z,21.44
2018-07-28T05:32:14.349Z,21.48
2018-07-28T05:33:14.422Z,21.51
2018-07-28T05:34:14.473Z,21.56
2018-07-28T05:35:14.502Z,21.57
2018-07-28T05:36:14.552Z,21.59
2018-07-28T05:37:14.681Z,21.66
2018-07-28T05:38:14.679Z,21.59
2018-07-28T05:39:14.732Z,21.67
2018-07-28T05:40:14.771Z,21.66
2018-07-28T05:41:14.811Z,21.63
2018-07-28T05:42:14.865Z,21.69
2018-07-28T05:43:14.938Z,21.75
2018-07-28T05:44:14.967Z,21.82
2018-07-28T05:45:15.017Z,21.72
2018-07-28T05:46:15.068Z,21.75
2018-07-28T05:47:15.123Z,21.78
2018-07-28T05:48:15.207Z,21.75
2018-07-28T05:49:15.222Z,21.79
2018-07-28T05:50:15.343Z,21.98
2018-07-28T05:51:15.330Z,21.95
2018-07-28T05:52:15.379Z,22.16
2018-07-28T05:53:15.457Z,22.16
2018-07-28T05:54:15.513Z,22.19
2018-07-28T05:55:15.540Z,22.29
2018-07-28T05:56:15.592Z,22.29
2018-07-28T05:57:15.635Z,22.34
2018-07-28T05:58:15.689Z,22.39
2018-07-28T05:59:15.766Z,22.46
2018-07-28T06:00:15.792Z,22.47
2018-07-28T06:01:15.850Z,22.43
2018-07-28T06:02:16.741Z,22.53
2018-07-28T06:03:15.949Z,22.54
2018-07-28T06:04:16.028Z,22.62
2018-07-28T06:05:16.057Z,22.56
2018-07-28T06:06:16.109Z,22.57
2018-07-28T06:07:16.199Z,22.59
2018-07-28T06:08:16.208Z,22.59
2018-07-28T06:09:16.281Z,22.65
2018-07-28T06:10:16.336Z,22.65
2018-07-28T06:11:16.364Z,22.64
2018-07-28T06:12:16.436Z,22.72
2018-07-28T06:13:16.467Z,22.72
2018-07-28T06:14:16.559Z,22.77
2018-07-28T06:15:17.221Z,22.80
2018-07-28T06:16:17.410Z,22.80
2018-07-28T06:17:16.672Z,22.80
2018-07-28T06:18:16.725Z,22.83
2018-07-28T06:19:16.780Z,22.89
2018-07-28T06:20:16.897Z,22.87
2018-07-28T06:21:16.883Z,22.87
2018-07-28T06:22:16.940Z,22.89
2018-07-28T06:23:16.987Z,22.92
2018-07-28T06:24:17.039Z,22.89
2018-07-28T06:25:17.122Z,23.05
2018-07-28T06:26:17.142Z,23.07
2018-07-28T06:27:17.193Z,23.04
2018-07-28T06:28:17.249Z,23.07
2018-07-28T06:29:17.299Z,23.07
2018-07-28T06:30:17.401Z,23.08
2018-07-28T06:31:17.403Z,23.15
2018-07-28T06:32:17.456Z,23.26
2018-07-28T06:33:17.508Z,23.39
2018-07-28T06:34:17.565Z,23.45
2018-07-28T06:35:17.644Z,23.46
2018-07-28T06:36:17.665Z,23.61
2018-07-28T06:37:17.717Z,23.64
2018-07-28T06:38:17.772Z,23.76
2018-07-28T06:39:17.823Z,23.79
2018-07-28T06:40:17.899Z,23.82
2018-07-28T06:41:17.928Z,23.92
2018-07-28T06:42:17.981Z,23.92
2018-07-28T06:43:18.034Z,23.92
2018-07-28T06:44:18.086Z,24.04
2018-07-28T06:45:18.178Z,24.10
2018-07-28T06:46:18.193Z,24.12
2018-07-28T06:47:18.300Z,24.19
2018-07-28T06:48:18.302Z,24.22
2018-07-28T06:49:18.350Z,24.19
2018-07-28T06:50:18.433Z,24.24
2018-07-28T06:51:18.456Z,24.38
2018-07-28T06:52:18.510Z,24.73
2018-07-28T06:53:18.565Z,25.31
2018-07-28T06:54:18.617Z,25.99
2018-07-28T06:55:18.693Z,26.74
2018-07-28T06:56:18.726Z,27.24
2018-07-28T06:57:18.780Z,27.70
2018-07-28T06:58:18.832Z,28.21
2018-07-28T06:59:18.883Z,28.25
2018-07-28T07:00:18.970Z,28.13
2018-07-28T07:01:18.993Z,28.22
2018-07-28T07:02:19.047Z,28.31
2018-07-28T07:03:19.103Z,28.33
2018-07-28T07:04:19.160Z,28.73
2018-07-28T07:05:19.242Z,29.06
2018-07-28T07:06:19.289Z,29.06
2018-07-28T07:07:19.321Z,29.08
2018-07-28T07:08:19.373Z,28.73
2018-07-28T07:09:19.428Z,29.01
2018-07-28T07:10:19.485Z,29.33
2018-07-28T07:11:19.564Z,29.41
2018-07-28T07:12:19.596Z,29.16
2018-07-28T07:13:19.648Z,28.95
2018-07-28T07:14:19.707Z,28.84
2018-07-28T07:15:19.759Z,28.14
2018-07-28T07:16:19.852Z,27.57
2018-07-28T07:17:19.871Z,27.41
2018-07-28T07:18:19.928Z,27.50
2018-07-28T07:19:19.986Z,27.29
2018-07-28T07:20:20.043Z,27.21
2018-07-28T07:21:20.114Z,27.14
2018-07-28T07:22:20.169Z,26.64
2018-07-28T07:23:20.198Z,26.43
2018-07-28T07:24:20.259Z,26.49
2018-07-28T07:25:20.310Z,26.44
2018-07-28T07:26:20.399Z,26.24
2018-07-28T07:27:20.421Z,25.99
2018-07-28T07:28:20.522Z,25.69
2018-07-28T07:29:20.533Z,25.56
2018-07-28T07:30:20.629Z,26.49
2018-07-28T07:31:20.683Z,26.62
2018-07-28T07:32:20.696Z,26.84
2018-07-28T07:33:20.752Z,26.25
2018-07-28T07:34:20.808Z,26.17
2018-07-28T07:35:20.861Z,25.93
2018-07-28T07:36:20.938Z,25.83
2018-07-28T07:37:21.000Z,25.61
2018-07-28T07:38:21.024Z,25.32
2018-07-28T07:39:21.080Z,25.38
2018-07-28T07:40:21.133Z,25.28
2018-07-28T07:41:21.190Z,25.39
2018-07-28T07:42:21.281Z,25.52
2018-07-28T07:43:21.296Z,26.22
2018-07-28T07:44:21.362Z,26.32
2018-07-28T07:45:21.410Z,26.64
2018-07-28T07:46:21.481Z,27.11
2018-07-28T07:47:21.580Z,27.24
2018-07-28T07:48:21.573Z,26.27
2018-07-28T07:49:21.630Z,26.01
2018-07-28T07:50:21.681Z,25.38
2018-07-28T07:51:21.742Z,25.27
2018-07-28T07:52:21.820Z,25.38
2018-07-28T07:53:21.844Z,25.37
2018-07-28T07:54:21.899Z,25.37
2018-07-28T07:55:21.955Z,25.52
2018-07-28T07:56:22.011Z,25.39
2018-07-28T07:57:22.107Z,25.49
2018-07-28T07:58:22.122Z,25.56
2018-07-28T07:59:22.172Z,25.42
2018-07-28T08:00:22.225Z,25.31
2018-07-28T08:01:22.281Z,25.28
2018-07-28T08:02:22.380Z,25.24
2018-07-28T08:03:22.387Z,25.17
2018-07-28T08:04:22.443Z,25.15
2018-07-28T08:05:22.498Z,25.13
2018-07-28T08:06:22.566Z,25.19
2018-07-28T08:07:22.632Z,25.10
2018-07-28T08:08:22.685Z,25.05
2018-07-28T08:09:22.715Z,25.09
2018-07-28T08:10:22.769Z,24.92
2018-07-28T08:11:22.824Z,24.75
2018-07-28T08:12:22.881Z,24.64
2018-07-28T08:13:22.956Z,24.52
2018-07-28T08:14:22.989Z,24.41
2018-07-28T08:15:23.042Z,24.35
2018-07-28T08:16:23.095Z,24.34
2018-07-28T08:17:23.153Z,24.20
2018-07-28T08:18:23.227Z,24.22
2018-07-28T08:19:23.279Z,24.24
2018-07-28T08:20:23.312Z,24.26
2018-07-28T08:21:23.365Z,24.19
2018-07-28T08:22:23.418Z,24.16
2018-07-28T08:23:23.472Z,24.29
2018-07-28T08:24:23.547Z,24.26
2018-07-28T08:25:23.578Z,24.27
2018-07-28T08:26:23.639Z,24.34
2018-07-28T08:27:23.685Z,24.49
2018-07-28T08:28:23.743Z,24.50
2018-07-28T08:29:23.827Z,24.50
2018-07-28T08:30:23.846Z,24.53
2018-07-28T08:31:23.903Z,24.52
2018-07-28T08:32:23.957Z,24.45
2018-07-28T08:33:24.028Z,24.63
2018-07-28T08:34:24.085Z,24.67
2018-07-28T08:35:24.115Z,24.60
2018-07-28T08:36:24.236Z,24.76
2018-07-28T08:37:24.225Z,24.82
2018-07-28T08:38:24.276Z,24.77
2018-07-28T08:39:24.331Z,24.79
2018-07-28T08:40:24.413Z,24.80
2018-07-28T08:41:24.436Z,24.79
2018-07-28T08:42:24.491Z,24.73
2018-07-28T08:43:24.542Z,24.73
2018-07-28T08:44:24.598Z,24.75
2018-07-28T08:45:24.678Z,24.64
2018-07-28T08:46:24.702Z,24.57
2018-07-28T08:47:24.778Z,24.44
2018-07-28T08:48:24.812Z,24.56
2018-07-28T08:49:24.955Z,24.53
2018-07-28T08:50:24.920Z,24.59
2018-07-28T08:51:24.993Z,24.56
2018-07-28T08:52:25.023Z,24.57
2018-07-28T08:53:25.077Z,24.53
2018-07-28T08:54:25.130Z,24.57
2018-07-28T08:55:25.209Z,24.64
2018-07-28T08:56:25.275Z,24.61
2018-07-28T08:57:25.291Z,24.61
2018-07-28T08:58:25.345Z,24.75
2018-07-28T08:59:25.399Z,24.76
2018-07-28T09:00:25.453Z,24.71
2018-07-28T09:01:25.540Z,24.76
2018-07-28T09:02:25.558Z,24.77
2018-07-28T09:03:25.611Z,24.82
2018-07-28T09:04:25.671Z,24.91
2018-07-28T09:05:25.717Z,24.91
2018-07-28T09:06:25.809Z,25.02
2018-07-28T09:07:25.825Z,25.07
2018-07-28T09:08:25.909Z,25.09
2018-07-28T09:09:25.934Z,25.22
2018-07-28T09:10:25.991Z,25.22
2018-07-28T09:11:26.070Z,25.30
2018-07-28T09:12:26.179Z,25.27
2018-07-28T09:13:26.151Z,25.38
2018-07-28T09:14:26.206Z,25.35
2018-07-28T09:15:26.256Z,25.42
2018-07-28T09:16:26.355Z,25.47
2018-07-28T09:17:26.367Z,25.43
2018-07-28T09:18:26.441Z,25.44
2018-07-28T09:19:26.474Z,25.59
2018-07-28T09:20:26.524Z,25.35
2018-07-28T09:21:26.581Z,25.39
2018-07-28T09:22:26.678Z,25.27
2018-07-28T09:23:26.802Z,25.16
2018-07-28T09:24:27.282Z,25.19
2018-07-28T09:25:26.793Z,25.17
2018-07-28T09:26:26.850Z,25.10
2018-07-28T09:27:26.913Z,25.06
2018-07-28T09:28:26.985Z,24.98
2018-07-28T09:29:27.010Z,24.88
2018-07-28T09:30:27.077Z,24.77
2018-07-28T09:31:27.115Z,24.87
2018-07-28T09:32:27.173Z,24.90
2018-07-28T09:33:27.246Z,24.88
2018-07-28T09:34:27.287Z,24.82
2018-07-28T09:35:27.333Z,24.85
2018-07-28T09:36:27.386Z,24.82
2018-07-28T09:37:27.439Z,24.79
2018-07-28T09:38:27.534Z,24.92
2018-07-28T09:39:27.546Z,24.88
2018-07-28T09:40:27.604Z,24.90
2018-07-28T09:41:27.654Z,24.85
2018-07-28T09:42:27.709Z,24.91
2018-07-28T09:43:27.793Z,24.87
2018-07-28T09:44:27.815Z,24.87
2018-07-28T09:45:27.870Z,24.90
2018-07-28T09:46:27.990Z,24.98
2018-07-28T09:47:27.975Z,24.98
2018-07-28T09:48:28.058Z,25.19
2018-07-28T09:49:28.084Z,25.39
2018-07-28T09:50:28.139Z,25.56
2018-07-28T09:51:28.210Z,25.62
2018-07-28T09:52:28.247Z,25.62
2018-07-28T09:53:28.355Z,25.39
2018-07-28T09:54:28.363Z,25.25
2018-07-28T09:55:28.404Z,25.19
2018-07-28T09:56:28.458Z,25.13
2018-07-28T09:57:28.512Z,25.17
2018-07-28T09:58:28.587Z,25.15
2018-07-28T09:59:28.618Z,25.30
2018-07-28T10:00:28.708Z,25.50
2018-07-28T10:01:28.727Z,25.59
2018-07-28T10:02:28.787Z,25.68
2018-07-28T10:03:28.836Z,25.67
2018-07-28T10:04:28.895Z,25.49
2018-07-28T10:05:29.018Z,25.53
2018-07-28T10:06:28.999Z,25.62
2018-07-28T10:07:29.050Z,25.69
2018-07-28T10:08:29.104Z,25.71
2018-07-28T10:09:29.158Z,25.79
2018-07-28T10:10:29.251Z,25.67
2018-07-28T10:11:29.266Z,25.77
2018-07-28T10:12:29.323Z,25.72
2018-07-28T10:13:29.377Z,25.75
2018-07-28T10:14:29.443Z,25.82
2018-07-28T10:15:29.515Z,25.84
2018-07-28T10:16:29.540Z,25.93
2018-07-28T10:17:29.593Z,26.01
2018-07-28T10:18:29.645Z,25.98
2018-07-28T10:19:29.701Z,26.04
2018-07-28T10:20:29.777Z,26.11
2018-07-28T10:21:29.808Z,26.27
2018-07-28T10:22:29.886Z,26.24
2018-07-28T10:23:29.916Z,26.46
2018-07-28T10:24:30.018Z,26.55
2018-07-28T10:25:30.027Z,26.40
2018-07-28T10:26:30.085Z,26.20
2018-07-28T10:27:30.182Z,25.93
2018-07-28T10:28:30.209Z,25.77
2018-07-28T10:29:30.242Z,25.61
2018-07-28T10:30:30.298Z,25.56
2018-07-28T10:31:30.362Z,25.57
2018-07-28T10:32:30.440Z,25.67
2018-07-28T10:33:30.468Z,25.68
2018-07-28T10:34:30.520Z,25.62
2018-07-28T10:35:30.570Z,25.68
2018-07-28T10:36:30.726Z,25.69
2018-07-28T10:37:30.710Z,25.82
2018-07-28T10:38:30.731Z,25.87
2018-07-28T10:39:30.794Z,25.82
2018-07-28T10:40:30.841Z,25.86
2018-07-28T10:41:30.925Z,26.01
2018-07-28T10:42:30.989Z,25.97
2018-07-28T10:43:31.005Z,25.82
2018-07-28T10:44:31.065Z,26.04
2018-07-28T10:45:31.120Z,26.20
2018-07-28T10:46:31.173Z,26.47
2018-07-28T10:47:31.253Z,26.76
2018-07-28T10:48:31.276Z,26.47
2018-07-28T10:49:31.335Z,26.68
2018-07-28T10:50:31.386Z,27.04
2018-07-28T10:51:31.443Z,27.23
2018-07-28T10:52:31.529Z,27.50
2018-07-28T10:53:31.561Z,27.89
2018-07-28T10:54:31.606Z,28.11
2018-07-28T10:55:31.712Z,28.36
2018-07-28T10:56:31.715Z,28.33
2018-07-28T10:57:31.795Z,28.60
2018-07-28T10:58:31.829Z,28.75
2018-07-28T10:59:31.886Z,28.72
2018-07-28T11:00:31.999Z,28.81
2018-07-28T11:01:32.020Z,28.59
2018-07-28T11:02:32.082Z,28.10
2018-07-28T11:03:32.108Z,27.86
2018-07-28T11:04:32.161Z,27.82
2018-07-28T11:05:32.221Z,27.88
2018-07-28T11:06:32.274Z,27.43
2018-07-28T11:07:32.360Z,27.11
2018-07-28T11:08:32.390Z,26.87
2018-07-28T11:09:32.447Z,26.65
2018-07-28T11:10:32.519Z,26.54
2018-07-28T11:11:32.555Z,26.58
2018-07-28T11:12:32.637Z,26.47
2018-07-28T11:13:32.670Z,26.59
2018-07-28T11:14:32.725Z,26.52
2018-07-28T11:15:32.803Z,26.61
2018-07-28T11:16:32.834Z,27.04
2018-07-28T11:17:32.891Z,27.51
2018-07-28T11:18:33.033Z,28.04
2018-07-28T11:19:33.001Z,28.59
2018-07-28T11:20:33.060Z,28.91
2018-07-28T11:21:33.113Z,29.18
2018-07-28T11:26:35.057Z,29.41
2018-07-28T11:27:35.052Z,29.43
2018-07-28T11:28:34.231Z,29.19
2018-07-28T11:29:34.278Z,29.45
2018-07-28T11:30:34.357Z,29.38
2018-07-28T11:31:34.467Z,29.41
2018-07-28T11:32:34.452Z,29.13
2018-07-28T11:33:36.036Z,28.69
2018-07-28T11:34:38.038Z,28.63
2018-07-28T11:35:34.660Z,28.97
2018-07-28T11:36:34.680Z,29.29
2018-07-28T11:37:34.747Z,29.50
2018-07-28T11:38:34.798Z,29.34
2018-07-28T11:39:34.853Z,28.81
2018-07-28T11:40:35.617Z,28.43
2018-07-28T11:41:34.971Z,28.36
2018-07-28T11:42:35.058Z,28.25
2018-07-28T11:43:38.039Z,28.32
2018-07-28T11:44:35.143Z,28.13
2018-07-28T11:45:35.388Z,28.14
2018-07-28T11:46:35.257Z,28.10
2018-07-28T11:47:35.317Z,28.03
2018-07-28T11:48:35.374Z,28.07
2018-07-28T11:49:35.433Z,28.31
2018-07-28T11:50:35.511Z,28.36
2018-07-28T11:51:35.584Z,28.48
2018-07-28T11:52:35.611Z,28.28
2018-07-28T11:53:35.662Z,28.28
2018-07-28T11:54:36.343Z,28.10
2018-07-28T11:55:35.776Z,28.13
2018-07-28T11:56:35.857Z,28.59
2018-07-28T11:57:35.892Z,28.81
2018-07-28T11:58:35.949Z,29.15
2018-07-28T11:59:36.008Z,29.45
2018-07-28T12:00:36.071Z,29.59
2018-07-28T12:01:36.153Z,29.77
2018-07-28T12:02:36.177Z,29.78
2018-07-28T12:03:36.238Z,29.75
2018-07-28T12:04:36.301Z,29.62
2018-07-28T12:05:36.424Z,29.18
2018-07-28T12:06:36.442Z,28.73
2018-07-28T12:07:36.468Z,28.44
2018-07-28T12:08:36.532Z,28.26
2018-07-28T12:09:36.584Z,28.44
2018-07-28T12:10:36.640Z,28.50
2018-07-28T12:11:36.731Z,28.65
2018-07-28T12:12:36.805Z,28.77
2018-07-28T12:13:36.814Z,28.97
2018-07-28T12:14:36.872Z,29.38
2018-07-28T12:15:36.931Z,29.40
2018-07-28T12:16:37.032Z,29.45
2018-07-28T12:17:37.048Z,29.23
2018-07-28T12:18:37.122Z,29.06
2018-07-28T12:19:37.160Z,28.78
2018-07-28T12:20:37.224Z,28.81
2018-07-28T12:21:37.311Z,28.84
2018-07-28T12:22:37.338Z,28.87
2018-07-28T12:23:37.394Z,28.84
2018-07-28T12:24:37.455Z,29.15
2018-07-28T12:25:37.510Z,29.13
2018-07-28T12:26:37.596Z,29.07
2018-07-28T12:27:37.623Z,28.77
2018-07-28T12:28:37.687Z,28.63
2018-07-28T12:29:37.739Z,28.68
2018-07-28T12:30:37.798Z,28.62
2018-07-28T12:31:37.892Z,28.80
2018-07-28T12:32:37.911Z,28.80
2018-07-28T12:33:37.996Z,28.78
2018-07-28T12:34:38.049Z,28.56
2018-07-28T12:35:38.086Z,28.48
2018-07-28T12:36:38.141Z,28.47
2018-07-28T12:37:38.230Z,28.44
2018-07-28T12:38:38.282Z,28.59
2018-07-28T12:39:38.319Z,28.62
2018-07-28T12:40:38.379Z,28.66
2018-07-28T12:41:38.430Z,28.53
2018-07-28T12:42:38.519Z,28.54
2018-07-28T12:43:38.567Z,28.54
2018-07-28T12:44:38.599Z,28.41
2018-07-28T12:45:38.656Z,28.43
2018-07-28T12:46:38.714Z,28.44
2018-07-28T12:47:38.771Z,28.46
2018-07-28T12:48:38.859Z,28.35
2018-07-28T12:49:38.896Z,28.36
2018-07-28T12:50:38.942Z,28.50
2018-07-28T12:51:38.997Z,28.35
2018-07-28T12:52:39.056Z,28.26
2018-07-28T12:53:39.137Z,28.29
2018-07-28T12:54:39.169Z,28.19
2018-07-28T12:55:39.255Z,28.11
2018-07-28T12:56:39.286Z,28.09
2018-07-28T12:57:39.337Z,27.88